createdAt,value
2023-02-12T00:00:04.261Z,19.25
2023-02-12T00:02:31.045Z,18.40
2023-02-12T00:04:57.861Z,18.95
2023-02-12T00:07:24.725Z,19.52
2023-02-12T00:09:51.422Z,17.77
2023-02-12T00:12:18.357Z,18.77
2023-02-12T00:14:45.239Z,18.27
2023-02-12T00:17:11.992Z,19.38
2023-02-12T00:19:38.768Z,19.30
2023-02-12T00:22:05.491Z,19.23
2023-02-12T00:24:32.542Z,18.70
2023-02-12T00:26:59.490Z,19.20
2023-02-12T00:29:26.222Z,18.35
2023-02-12T00:31:53.030Z,18.50
2023-02-12T00:34:19.821Z,19.25
2023-02-12T00:36:46.527Z,18.83
2023-02-12T00:39:13.310Z,17.55
2023-02-12T00:41:40.085Z,18.65
2023-02-12T00:44:06.800Z,18.80
2023-02-12T00:46:33.516Z,17.70
2023-02-12T00:49:00.348Z,18.20
2023-02-12T00:51:27.132Z,18.27
2023-02-12T00:53:53.896Z,18.25
2023-02-12T00:56:20.875Z,17.85
2023-02-12T00:58:47.622Z,18.25
2023-02-12T01:01:14.483Z,20.15
2023-02-12T01:03:42.423Z,18.75
2023-02-12T01:06:09.230Z,18.50
2023-02-12T01:08:35.972Z,18.95
2023-02-12T01:11:05.068Z,18.52
2023-02-12T01:13:32.950Z,18.60
2023-02-12T01:16:14.812Z,18.40
2023-02-12T01:18:41.767Z,17.13
2023-02-12T01:21:10.847Z,17.90
2023-02-12T01:23:37.656Z,17.35
2023-02-12T01:26:04.749Z,17.75
2023-02-12T01:28:31.427Z,18.42
2023-02-12T01:30:58.349Z,19.25
2023-02-12T01:33:25.115Z,18.08
2023-02-12T01:35:51.829Z,18.92
2023-02-12T01:38:18.663Z,18.85
2023-02-12T01:40:45.448Z,18.17
2023-02-12T01:43:13.127Z,17.52
2023-02-12T01:45:46.032Z,17.98
2023-02-12T01:48:14.908Z,18.45
2023-02-12T01:50:43.957Z,18.83
2023-02-12T01:53:11.127Z,20.08
2023-02-12T01:55:38.017Z,19.15
2023-02-12T01:58:05.980Z,18.80
2023-02-12T02:00:33.530Z,19.05
2023-02-12T02:03:01.700Z,17.52
2023-02-12T02:05:46.353Z,18.67
2023-02-12T02:08:13.610Z,19.02
2023-02-12T02:10:40.448Z,19.05
2023-02-12T02:13:26.749Z,19.20
2023-02-12T02:16:00.094Z,17.65
2023-02-12T02:18:31.154Z,18.33
2023-02-12T02:21:28.816Z,18.33
2023-02-12T02:24:31.678Z,19.67
2023-02-12T02:27:52.789Z,19.40
2023-02-12T02:30:45.693Z,17.75
2023-02-12T02:33:32.574Z,18.70
2023-02-12T02:36:28.565Z,19.65
2023-02-12T02:39:17.481Z,18.67
2023-02-12T02:41:53.841Z,18.67
2023-02-12T02:44:32.026Z,20.23
2023-02-12T02:47:00.623Z,19.60
2023-02-12T02:49:51.692Z,20.42
2023-02-12T02:52:24.239Z,20.13
2023-02-12T02:54:56.731Z,20.80
2023-02-12T02:57:41.480Z,21.83
2023-02-12T03:00:18.566Z,19.48
2023-02-12T03:03:23.024Z,19.98
2023-02-12T03:05:54.704Z,20.35
2023-02-12T03:08:29.580Z,20.17
2023-02-12T03:11:03.892Z,21.97
2023-02-12T03:13:52.231Z,21.02
2023-02-12T03:16:25.845Z,20.23
2023-02-12T03:19:10.922Z,21.00
2023-02-12T03:21:43.579Z,20.60
2023-02-12T03:24:10.264Z,19.70
2023-02-12T03:26:45.188Z,20.77
2023-02-12T03:29:12.228Z,20.90
2023-02-12T03:31:54.798Z,20.95
2023-02-12T03:34:35.603Z,19.85
2023-02-12T03:37:10.744Z,22.63
2023-02-12T03:40:05.449Z,20.42
2023-02-12T03:42:58.261Z,21.25
2023-02-12T03:45:49.911Z,22.85
2023-02-12T03:48:27.111Z,21.85
2023-02-12T03:50:58.409Z,22.67
2023-02-12T03:53:27.548Z,22.42
2023-02-12T03:56:00.041Z,22.65
2023-02-12T03:58:29.552Z,23.02
2023-02-12T04:00:57.259Z,23.30
2023-02-12T04:03:24.921Z,21.52
2023-02-12T04:05:51.759Z,23.15
2023-02-12T04:08:18.546Z,21.55
2023-02-12T04:11:12.753Z,21.48
2023-02-12T04:14:05.254Z,20.77
2023-02-12T04:16:40.556Z,21.08
2023-02-12T04:19:11.715Z,22.70
2023-02-12T04:22:13.197Z,22.08
2023-02-12T04:24:53.233Z,23.10
2023-02-12T04:27:55.361Z,22.52
2023-02-12T04:30:48.641Z,21.92
2023-02-12T04:33:21.654Z,22.55
2023-02-12T04:35:51.357Z,21.25
2023-02-12T04:38:30.233Z,22.35
2023-02-12T04:40:58.225Z,22.63
2023-02-12T04:43:36.400Z,22.50
2023-02-12T04:46:05.788Z,22.95
2023-02-12T04:48:34.534Z,22.90
2023-02-12T04:51:02.039Z,22.52
2023-02-12T04:53:29.203Z,22.52
2023-02-12T04:55:56.312Z,21.95
2023-02-12T04:58:23.245Z,22.05
2023-02-12T05:00:50.001Z,23.40
2023-02-12T05:03:16.746Z,23.00
2023-02-12T05:05:43.408Z,21.92
2023-02-12T05:08:10.149Z,21.90
2023-02-12T05:10:36.882Z,23.10
2023-02-12T05:13:03.607Z,23.67
2023-02-12T05:15:30.379Z,22.50
2023-02-12T05:17:57.234Z,21.92
2023-02-12T05:20:23.976Z,23.95
2023-02-12T05:22:54.248Z,24.27
2023-02-12T05:25:21.364Z,22.40
2023-02-12T05:27:48.452Z,22.52
2023-02-12T05:30:15.263Z,22.35
2023-02-12T05:32:42.088Z,21.58
2023-02-12T05:35:08.999Z,22.58
2023-02-12T05:37:36.551Z,22.63
2023-02-12T05:40:05.691Z,22.88
2023-02-12T05:42:32.573Z,22.95
2023-02-12T05:44:59.349Z,22.95
2023-02-12T05:47:26.148Z,23.60
2023-02-12T05:49:52.832Z,23.20
2023-02-12T05:52:19.530Z,23.45
2023-02-12T05:54:49.897Z,23.92
2023-02-12T05:57:16.593Z,23.02
2023-02-12T05:59:43.333Z,22.83
2023-02-12T06:02:10.070Z,23.80
2023-02-12T06:04:36.791Z,22.95
2023-02-12T06:07:03.668Z,22.60
2023-02-12T06:09:30.408Z,23.25
2023-02-12T06:11:57.151Z,22.73
2023-02-12T06:14:23.917Z,22.85
2023-02-12T06:16:51.857Z,23.10
2023-02-12T06:19:19.785Z,23.73
2023-02-12T06:21:46.914Z,24.77
2023-02-12T06:24:15.010Z,21.88
2023-02-12T06:26:41.821Z,22.77
2023-02-12T06:29:08.550Z,23.10
2023-02-12T06:31:36.852Z,24.23
2023-02-12T06:34:07.133Z,24.35
2023-02-12T06:36:34.222Z,23.52
2023-02-12T06:39:02.701Z,25.20
2023-02-12T06:41:29.781Z,23.27
2023-02-12T06:43:56.534Z,24.67
2023-02-12T06:46:23.809Z,24.83
2023-02-12T06:48:54.974Z,23.38
2023-02-12T06:51:23.507Z,24.00
2023-02-12T06:53:51.789Z,23.92
2023-02-12T06:56:19.059Z,23.13
2023-02-12T06:58:48.505Z,24.35
2023-02-12T07:01:18.166Z,23.85
2023-02-12T07:03:49.612Z,24.05
2023-02-12T07:06:16.550Z,23.80
2023-02-12T07:08:43.301Z,25.63
2023-02-12T07:11:10.761Z,25.58
2023-02-12T07:13:37.613Z,25.10
2023-02-12T07:16:06.645Z,25.05
2023-02-12T07:18:37.694Z,24.30
2023-02-12T07:21:05.953Z,23.75
2023-02-12T07:23:34.102Z,25.52
2023-02-12T07:26:03.853Z,25.38
2023-02-12T07:28:33.725Z,25.70
2023-02-12T07:31:17.211Z,25.27
2023-02-12T07:33:45.012Z,24.90
2023-02-12T07:36:14.555Z,25.17
2023-02-12T07:38:41.779Z,25.17
2023-02-12T07:41:14.138Z,24.67
2023-02-12T07:43:42.273Z,24.27
2023-02-12T07:46:11.223Z,24.88
2023-02-12T07:48:38.198Z,25.80
2023-02-12T07:51:10.223Z,25.17
2023-02-12T07:53:38.053Z,24.80
2023-02-12T07:56:13.137Z,24.60
2023-02-12T07:58:41.007Z,25.45
2023-02-12T08:01:35.656Z,24.85
2023-02-12T08:04:11.536Z,25.83
2023-02-12T08:06:41.440Z,25.92
2023-02-12T08:09:11.387Z,28.15
2023-02-12T08:11:39.988Z,32.03
2023-02-12T08:14:07.483Z,30.40
2023-02-12T08:16:39.898Z,31.00
2023-02-12T08:19:17.567Z,30.42
2023-02-12T08:21:49.873Z,30.70
2023-02-12T08:24:16.532Z,30.33
2023-02-12T08:26:44.304Z,31.38
2023-02-12T08:29:20.983Z,33.78
2023-02-12T08:31:49.408Z,34.50
2023-02-12T08:34:25.525Z,33.58
2023-02-12T08:36:54.163Z,32.80
2023-02-12T08:39:22.169Z,34.25
2023-02-12T08:41:49.785Z,32.22
2023-02-12T08:44:17.431Z,33.47
2023-02-12T08:46:47.062Z,32.72
2023-02-12T08:49:16.939Z,33.67
2023-02-12T08:51:46.713Z,32.40
2023-02-12T08:54:15.828Z,34.40
2023-02-12T08:56:45.153Z,33.05
2023-02-12T08:59:13.090Z,34.75
2023-02-12T09:01:43.855Z,32.72
2023-02-12T09:04:17.945Z,34.63
2023-02-12T09:06:46.074Z,32.97
2023-02-12T09:09:13.144Z,35.13
2023-02-12T09:11:39.983Z,33.53
2023-02-12T09:14:09.276Z,32.45
2023-02-12T09:16:37.198Z,32.90
2023-02-12T09:19:05.105Z,32.42
2023-02-12T09:21:32.143Z,31.92
2023-02-12T09:23:59.031Z,31.83
2023-02-12T09:26:26.250Z,32.92
2023-02-12T09:28:54.111Z,31.95
2023-02-12T09:31:27.314Z,32.22
2023-02-12T09:33:58.239Z,30.50
2023-02-12T09:36:25.481Z,32.65
2023-02-12T09:38:54.392Z,31.27
2023-02-12T09:41:30.065Z,32.05
2023-02-12T09:47:01.802Z,30.63
2023-02-12T09:50:00.987Z,31.40
2023-02-12T09:52:28.907Z,32.15
2023-02-12T09:54:56.915Z,31.90
2023-02-12T09:57:38.122Z,32.03
2023-02-12T10:00:09.585Z,31.80
2023-02-12T10:02:39.405Z,31.20
2023-02-12T10:05:16.408Z,32.72
2023-02-12T10:07:43.207Z,32.38
2023-02-12T10:10:28.580Z,32.72
2023-02-12T10:13:02.590Z,33.13
2023-02-12T10:15:35.761Z,33.88
2023-02-12T10:18:30.666Z,33.05
2023-02-12T10:21:03.204Z,32.35
2023-02-12T10:23:54.392Z,32.17
2023-02-12T10:26:29.782Z,30.15
2023-02-12T10:29:05.253Z,30.25
2023-02-12T10:31:45.782Z,29.95
2023-02-12T10:34:18.342Z,29.70
2023-02-12T10:36:47.676Z,28.60
2023-02-12T10:39:20.462Z,27.35
2023-02-12T10:42:04.453Z,28.63
2023-02-12T10:44:31.913Z,27.40
2023-02-12T10:46:58.630Z,28.88
2023-02-12T10:49:25.589Z,28.67
2023-02-12T10:52:03.913Z,26.88
2023-02-12T10:54:43.738Z,27.60
2023-02-12T10:57:26.076Z,26.98
2023-02-12T10:59:57.094Z,27.42
2023-02-12T11:02:31.258Z,27.73
2023-02-12T11:04:59.709Z,26.55
2023-02-12T11:07:27.722Z,24.92
2023-02-12T11:09:56.943Z,25.92
2023-02-12T11:12:31.709Z,25.10
2023-02-12T11:15:01.822Z,25.63
2023-02-12T11:17:43.167Z,25.60
2023-02-12T11:20:21.583Z,25.25
2023-02-12T11:22:54.671Z,24.42
2023-02-12T11:25:23.048Z,25.05
2023-02-12T11:28:02.965Z,23.17
2023-02-12T11:30:30.517Z,25.17
2023-02-12T11:33:31.480Z,26.42
2023-02-12T11:36:23.508Z,25.50
2023-02-12T11:38:56.377Z,26.38
2023-02-12T11:41:36.474Z,26.33
2023-02-12T11:44:26.605Z,26.73
2023-02-12T11:46:59.106Z,27.13
2023-02-12T11:49:30.425Z,26.30
2023-02-12T11:51:59.718Z,24.85
2023-02-12T11:54:30.155Z,25.20
2023-02-12T11:56:56.957Z,25.90
2023-02-12T11:59:36.311Z,24.48
2023-02-12T12:02:23.387Z,26.27
2023-02-12T12:04:54.460Z,25.05
2023-02-12T12:07:33.553Z,25.15
2023-02-12T12:10:06.231Z,24.40
2023-02-12T12:12:56.134Z,26.40
2023-02-12T12:15:47.287Z,26.17
2023-02-12T12:19:10.509Z,26.65
2023-02-12T12:21:43.553Z,26.23
2023-02-12T12:24:18.630Z,26.65
2023-02-12T12:27:00.318Z,25.40
2023-02-12T12:29:40.252Z,23.65
2023-02-12T12:32:09.496Z,22.75
2023-02-12T12:34:36.132Z,23.80
2023-02-12T12:37:17.826Z,23.30
2023-02-12T12:40:21.803Z,22.77
2023-02-12T12:43:16.281Z,23.00
2023-02-12T12:46:07.803Z,24.55
2023-02-12T12:49:07.688Z,24.60
2023-02-12T12:52:05.441Z,23.90
2023-02-12T12:54:52.737Z,23.83
2023-02-12T12:57:56.304Z,23.48
2023-02-12T13:00:40.734Z,25.05
2023-02-12T13:03:38.370Z,24.90
2023-02-12T13:06:28.284Z,24.80
2023-02-12T13:09:20.125Z,23.88
2023-02-12T13:12:04.948Z,23.58
2023-02-12T13:15:09.771Z,24.17
2023-02-12T13:17:51.755Z,23.55
2023-02-12T13:20:44.972Z,24.25
2023-02-12T13:23:27.821Z,21.80
2023-02-12T13:26:06.305Z,23.65
2023-02-12T13:28:40.962Z,23.52
2023-02-12T13:31:33.982Z,24.60
2023-02-12T13:34:11.301Z,25.00
2023-02-12T13:36:38.960Z,26.02
2023-02-12T13:39:05.805Z,25.55
2023-02-12T13:41:34.105Z,26.20
2023-02-12T13:44:11.592Z,24.40
2023-02-12T13:46:47.164Z,24.08
2023-02-12T13:49:34.056Z,24.30
2023-02-12T13:52:11.614Z,24.65
2023-02-12T13:55:03.089Z,22.02
2023-02-12T13:57:30.070Z,21.10
2023-02-12T13:59:58.314Z,21.95
2023-02-12T14:02:38.348Z,22.45
2023-02-12T14:05:18.789Z,23.80
2023-02-12T14:07:47.645Z,24.10
2023-02-12T14:10:28.410Z,26.02
2023-02-12T14:13:17.424Z,25.15
2023-02-12T14:15:51.043Z,24.65
2023-02-12T14:18:35.988Z,25.77
2023-02-12T14:21:11.542Z,25.73
2023-02-12T14:23:46.008Z,25.77
2023-02-12T14:26:15.976Z,24.40
2023-02-12T14:28:56.812Z,23.88
2023-02-12T14:31:38.212Z,23.10
2023-02-12T14:34:05.037Z,22.27
2023-02-12T14:36:42.657Z,21.48
2023-02-12T14:39:24.596Z,19.35
2023-02-12T14:42:10.138Z,20.10
2023-02-12T14:47:14.241Z,25.50
2023-02-12T14:49:52.303Z,23.85
2023-02-12T14:52:23.004Z,24.33
2023-02-12T14:55:18.229Z,22.48
2023-02-12T14:57:45.233Z,23.00
2023-02-12T15:00:18.231Z,22.65
2023-02-12T15:03:05.496Z,22.95
2023-02-12T15:06:02.061Z,22.33
2023-02-12T15:08:47.189Z,21.10
2023-02-12T15:11:21.264Z,22.37
2023-02-12T15:14:00.964Z,23.48
2023-02-12T15:16:38.596Z,24.15
2023-02-12T15:19:14.145Z,22.48
2023-02-12T15:21:41.336Z,22.98
2023-02-12T15:24:13.852Z,24.20
2023-02-12T15:27:01.172Z,21.65
2023-02-12T15:29:43.839Z,22.52
2023-02-12T15:32:19.395Z,23.08
2023-02-12T15:37:23.942Z,23.38
2023-02-12T15:39:54.736Z,21.88
2023-02-12T15:42:24.580Z,22.38
2023-02-12T15:44:51.225Z,23.00
2023-02-12T15:47:24.644Z,23.40
2023-02-12T15:49:51.604Z,22.42
2023-02-12T15:52:24.758Z,23.25
2023-02-12T15:54:51.874Z,23.88
2023-02-12T15:57:25.215Z,22.75
2023-02-12T15:59:53.758Z,25.30
2023-02-12T16:02:25.427Z,23.63
2023-02-12T16:04:52.435Z,24.98
2023-02-12T16:07:20.373Z,25.27
2023-02-12T16:09:48.617Z,25.35
2023-02-12T16:12:20.616Z,24.60
2023-02-12T16:15:05.835Z,24.75
2023-02-12T16:17:36.157Z,23.55
2023-02-12T16:20:20.409Z,22.80
2023-02-12T16:22:49.154Z,21.85
2023-02-12T16:25:22.355Z,24.95
2023-02-12T16:28:01.538Z,23.73
2023-02-12T16:30:34.210Z,21.75
2023-02-12T16:33:03.844Z,21.98
2023-02-12T16:35:35.658Z,19.98
2023-02-12T16:38:27.502Z,21.05
2023-02-12T16:41:25.386Z,21.90
2023-02-12T16:44:18.150Z,20.30
2023-02-12T16:46:56.884Z,21.23
2023-02-12T16:49:26.055Z,21.02
2023-02-12T16:51:53.641Z,21.30
2023-02-12T16:54:35.248Z,21.67
2023-02-12T16:57:02.354Z,20.10
2023-02-12T16:59:30.118Z,20.27
2023-02-12T17:02:12.661Z,21.52
2023-02-12T17:04:39.734Z,21.90
2023-02-12T17:07:18.876Z,21.80
2023-02-12T17:09:45.594Z,21.50
2023-02-12T17:12:12.389Z,21.23
2023-02-12T17:14:39.211Z,22.08
2023-02-12T17:17:06.239Z,22.98
2023-02-12T17:19:33.042Z,22.25
2023-02-12T17:22:00.117Z,24.08
2023-02-12T17:24:30.150Z,23.10
2023-02-12T17:26:57.780Z,23.40
2023-02-12T17:29:25.406Z,23.75
2023-02-12T17:31:56.184Z,22.45
2023-02-12T17:34:23.901Z,23.40
2023-02-12T17:36:50.803Z,24.58
2023-02-12T17:39:18.246Z,23.33
2023-02-12T17:41:45.274Z,23.98
2023-02-12T17:44:13.953Z,24.10
2023-02-12T17:46:41.001Z,25.35
2023-02-12T17:49:07.736Z,24.45
2023-02-12T17:51:34.440Z,24.45
2023-02-12T17:54:01.225Z,25.83
2023-02-12T17:56:28.136Z,27.30
2023-02-12T17:58:54.880Z,26.70
2023-02-12T18:01:23.501Z,26.95
2023-02-12T18:03:52.385Z,26.67
2023-02-12T18:06:25.396Z,27.15
2023-02-12T18:08:52.649Z,27.65
2023-02-12T18:11:19.987Z,28.13
2023-02-12T18:13:47.390Z,28.70
2023-02-12T18:16:14.534Z,29.20
2023-02-12T18:18:41.316Z,28.42
2023-02-12T18:21:10.184Z,28.77
2023-02-12T18:23:37.737Z,28.00
2023-02-12T18:26:10.031Z,28.77
2023-02-12T18:28:37.498Z,28.67
2023-02-12T18:31:04.960Z,29.42
2023-02-12T18:33:32.532Z,28.05
2023-02-12T18:36:00.591Z,28.48
2023-02-12T18:38:28.122Z,29.10
2023-02-12T18:40:55.103Z,30.63
2023-02-12T18:43:24.648Z,29.75
2023-02-12T18:45:51.702Z,28.10
2023-02-12T18:48:18.428Z,28.42
2023-02-12T18:50:45.165Z,28.83
2023-02-12T18:53:11.863Z,28.95
2023-02-12T18:55:39.733Z,30.25
2023-02-12T18:58:06.491Z,29.30
2023-02-12T19:00:33.234Z,30.35
2023-02-12T19:03:00.124Z,31.20
2023-02-12T19:05:27.041Z,31.13
2023-02-12T19:07:53.792Z,29.55
2023-02-12T19:10:22.030Z,29.58
2023-02-12T19:12:49.081Z,31.45
2023-02-12T19:15:17.187Z,30.65
2023-02-12T19:17:43.917Z,30.98
2023-02-12T19:20:12.025Z,32.03
2023-02-12T19:22:39.763Z,33.17
2023-02-12T19:25:06.812Z,32.50
2023-02-12T19:27:33.826Z,29.90
2023-02-12T19:30:01.808Z,32.35
2023-02-12T19:32:28.711Z,31.35
2023-02-12T19:34:55.458Z,31.70
2023-02-12T19:37:22.382Z,31.17
2023-02-12T19:39:49.266Z,32.80
2023-02-12T19:42:17.591Z,32.38
2023-02-12T19:44:46.617Z,30.58
2023-02-12T19:47:13.514Z,31.33
2023-02-12T19:49:41.363Z,31.50
2023-02-12T19:52:08.600Z,32.72
2023-02-12T19:54:35.936Z,30.63
2023-02-12T19:57:08.495Z,34.35
2023-02-12T19:59:36.198Z,33.42
2023-02-12T20:02:03.528Z,32.72
2023-02-12T20:04:31.205Z,31.65
2023-02-12T20:06:57.918Z,31.00
2023-02-12T20:09:24.902Z,31.48
2023-02-12T20:11:52.574Z,31.92
2023-02-12T20:14:22.546Z,33.03
2023-02-12T20:16:50.385Z,31.67
2023-02-12T20:19:30.106Z,33.28
2023-02-12T20:21:58.185Z,31.38
2023-02-12T20:24:30.104Z,32.72
2023-02-12T20:26:58.717Z,33.97
2023-02-12T20:29:25.840Z,32.88
2023-02-12T20:31:53.179Z,34.30
2023-02-12T20:34:20.756Z,34.50
2023-02-12T20:36:48.182Z,33.72
2023-02-12T20:39:18.714Z,34.28
2023-02-12T20:41:45.914Z,34.97
2023-02-12T20:44:16.856Z,34.70
2023-02-12T20:46:48.498Z,34.53
2023-02-12T20:49:17.350Z,32.70
2023-02-12T20:51:45.034Z,35.53
2023-02-12T20:54:12.145Z,36.35
2023-02-12T20:56:39.214Z,34.45
2023-02-12T20:59:06.896Z,34.83
2023-02-12T21:01:38.927Z,33.95
2023-02-12T21:04:09.769Z,34.90
2023-02-12T21:06:40.116Z,34.17
2023-02-12T21:09:09.721Z,35.28
2023-02-12T21:11:37.140Z,35.88
2023-02-12T21:14:20.920Z,36.20
2023-02-12T21:16:48.531Z,35.58
2023-02-12T21:19:15.401Z,35.03
2023-02-12T21:21:45.187Z,34.22
2023-02-12T21:24:18.801Z,34.85
2023-02-12T21:26:45.580Z,33.95
2023-02-12T21:29:12.538Z,34.08
2023-02-12T21:31:41.869Z,34.53
2023-02-12T21:34:12.478Z,33.75
2023-02-12T21:36:41.368Z,33.40
2023-02-12T21:39:11.578Z,34.05
2023-02-12T21:41:40.333Z,33.83
2023-02-12T21:44:25.979Z,33.33
2023-02-12T21:46:53.331Z,33.33
2023-02-12T21:49:28.065Z,32.17
2023-02-12T21:52:02.019Z,32.25
2023-02-12T21:54:29.511Z,32.63
2023-02-12T21:56:56.913Z,32.03
2023-02-12T21:59:24.873Z,31.90
2023-02-12T22:01:53.148Z,31.60
2023-02-12T22:04:20.165Z,30.30
2023-02-12T22:06:49.534Z,31.15
2023-02-12T22:09:19.870Z,30.48
2023-02-12T22:11:46.937Z,31.23
2023-02-12T22:14:15.919Z,30.65
2023-02-12T22:16:42.887Z,29.45
2023-02-12T22:19:09.923Z,27.77
2023-02-12T22:21:40.074Z,29.63
2023-02-12T22:24:09.364Z,29.25
2023-02-12T22:26:36.157Z,28.23
2023-02-12T22:29:06.218Z,29.42
2023-02-12T22:31:36.360Z,26.85
2023-02-12T22:34:08.247Z,27.60
2023-02-12T22:36:36.349Z,25.73
2023-02-12T22:39:04.632Z,27.55
2023-02-12T22:41:31.689Z,28.10
2023-02-12T22:44:00.358Z,27.13
2023-02-12T22:46:27.481Z,27.73
2023-02-12T22:48:54.528Z,26.88
2023-02-12T22:51:24.417Z,26.17
2023-02-12T22:53:51.724Z,27.25
2023-02-12T22:56:18.900Z,26.85
2023-02-12T22:58:46.016Z,27.33
2023-02-12T23:01:18.049Z,28.38
2023-02-12T23:03:45.703Z,29.80
2023-02-12T23:06:16.225Z,27.65
2023-02-12T23:08:44.036Z,27.77
2023-02-12T23:11:11.994Z,27.45
2023-02-12T23:13:38.967Z,28.73
2023-02-12T23:16:06.053Z,28.85
2023-02-12T23:18:33.312Z,29.05
2023-02-12T23:21:01.570Z,27.88
2023-02-12T23:23:28.495Z,29.23
2023-02-12T23:25:55.427Z,29.85
2023-02-12T23:28:23.401Z,29.02
2023-02-12T23:30:51.659Z,30.48
2023-02-12T23:33:19.409Z,28.58
2023-02-12T23:35:46.972Z,31.17
2023-02-12T23:38:14.464Z,30.17
2023-02-12T23:40:41.530Z,32.10
2023-02-12T23:43:08.989Z,29.30
2023-02-12T23:45:35.652Z,29.55
2023-02-12T23:48:02.368Z,29.75
2023-02-12T23:50:29.164Z,30.35
2023-02-12T23:52:56.037Z,29.65
2023-02-12T23:55:22.819Z,31.00
2023-02-12T23:57:50.352Z,30.20
